Time;durP1;ratioP1;P1;durP2;ratioP2;P2;SDS_P1;SDS_P2;PMS_P1;PMS_P2;Temp;Humidity;BMP_temperature;BMP_pressure;BME280_temperature;BME280_humidity;BME280_pressure;Samples;Min_cycle;Max_cycle;Signal;HPM_P1;HPM_P2
2023/09/19 00:00:06;;;;;;;2.07;1.40;;;16.90;99.90;;;;;;4997009;28;20210;-83
2023/09/19 00:02:33;;;;;;;1.60;1.30;;;16.90;99.90;;;;;;4997950;28;20272;-83
2023/09/19 00:04:58;;;;;;;2.43;1.53;;;16.90;99.90;;;;;;4998247;28;20192;-84
2023/09/19 00:07:24;;;;;;;1.50;1.40;;;16.90;99.90;;;;;;4980277;28;20703;-83
2023/09/19 00:09:50;;;;;;;1.97;1.50;;;16.90;99.90;;;;;;4997708;28;20182;-83
2023/09/19 00:12:15;;;;;;;2.27;1.60;;;16.90;99.90;;;;;;4997777;28;20179;-83
2023/09/19 00:14:41;;;;;;;1.77;1.50;;;16.80;99.90;;;;;;4979701;28;20295;-83
2023/09/19 00:17:08;;;;;;;2.07;1.60;;;16.90;99.90;;;;;;4985868;28;20180;-83
2023/09/19 00:19:34;;;;;;;1.83;1.30;;;16.80;99.90;;;;;;4997163;28;20587;-83
2023/09/19 00:22:01;;;;;;;2.23;1.63;;;16.80;99.90;;;;;;4980177;28;20171;-82
2023/09/19 00:24:27;;;;;;;2.57;1.70;;;16.80;99.90;;;;;;4998039;28;20183;-82
2023/09/19 00:26:54;;;;;;;2.67;1.90;;;16.90;99.90;;;;;;4997430;28;20211;-83
2023/09/19 00:29:19;;;;;;;2.63;1.70;;;16.90;99.90;;;;;;4979978;28;20172;-83
2023/09/19 00:31:45;;;;;;;1.67;1.57;;;16.80;99.90;;;;;;4997185;28;20183;-83
2023/09/19 00:34:11;;;;;;;2.80;1.83;;;16.90;99.90;;;;;;4997566;28;20246;-83
2023/09/19 00:36:40;;;;;;;1.80;1.50;;;16.90;99.90;;;;;;4979982;28;20196;-83
2023/09/19 00:39:08;;;;;;;2.57;1.97;;;16.90;99.90;;;;;;4979655;28;20180;-83
2023/09/19 00:41:35;;;;;;;2.47;1.60;;;16.90;99.90;;;;;;4997153;28;20206;-84
2023/09/19 00:44:04;;;;;;;3.10;2.00;;;16.90;99.90;;;;;;4997681;28;20174;-83
2023/09/19 00:46:32;;;;;;;1.97;1.50;;;16.80;99.90;;;;;;4997389;28;20647;-85
2023/09/19 00:48:58;;;;;;;3.00;1.60;;;16.80;99.90;;;;;;4998042;28;20160;-85
2023/09/19 00:51:25;;;;;;;2.10;1.70;;;16.80;99.90;;;;;;4997042;28;20230;-83
2023/09/19 00:53:52;;;;;;;2.90;1.60;;;16.90;99.90;;;;;;4979247;28;20171;-83
2023/09/19 00:56:18;;;;;;;2.63;1.50;;;16.90;99.90;;;;;;4996869;28;20257;-83
2023/09/19 00:58:46;;;;;;;2.03;1.60;;;16.90;99.90;;;;;;4979512;28;20182;-83
2023/09/19 01:01:13;;;;;;;2.40;1.50;;;16.80;99.90;;;;;;4979563;28;20253;-83
2023/09/19 01:03:40;;;;;;;2.20;1.50;;;16.80;99.90;;;;;;4997086;28;20176;-83
2023/09/19 01:06:07;;;;;;;4.10;1.80;;;16.80;99.90;;;;;;4979150;28;20219;-84
2023/09/19 01:08:35;;;;;;;3.70;1.83;;;16.80;99.90;;;;;;4979152;28;20592;-83
2023/09/19 01:11:13;;;;;;;1.73;1.47;;;16.80;99.90;;;;;;4996653;28;20172;-83
2023/09/19 01:14:01;;;;;;;2.90;1.60;;;16.80;99.90;;;;;;4996786;28;20614;-84
2023/09/19 01:16:39;;;;;;;1.63;1.33;;;16.80;99.90;;;;;;5067459;23;20326;-82
2023/09/19 01:19:37;;;;;;;1.40;1.30;;;16.90;99.90;;;;;;5043106;28;20206;-81
2023/09/19 01:22:21;;;;;;;2.07;1.50;;;16.90;99.90;;;;;;5024756;28;20171;-82
2023/09/19 01:25:19;;;;;;;2.57;1.67;;;16.90;99.90;;;;;;5043605;28;20167;-82
2023/09/19 01:27:59;;;;;;;2.07;1.60;;;16.90;99.90;;;;;;4971617;28;20245;-81
2023/09/19 01:30:32;;;;;;;2.60;1.60;;;16.90;99.90;;;;;;5024455;28;20265;-80
2023/09/19 01:32:59;;;;;;;3.43;1.60;;;16.90;99.90;;;;;;5039005;28;20219;-80
2023/09/19 01:35:24;;;;;;;3.40;1.80;;;16.90;99.90;;;;;;5024782;28;20195;-80
2023/09/19 01:37:50;;;;;;;3.80;1.70;;;16.90;99.90;;;;;;5042808;28;20189;-81
2023/09/19 01:40:19;;;;;;;2.10;1.63;;;16.90;99.90;;;;;;5022403;28;20174;-81
2023/09/19 01:42:55;;;;;;;1.73;1.63;;;16.90;99.90;;;;;;5039688;28;20174;-81
2023/09/19 01:45:27;;;;;;;2.87;1.70;;;16.80;99.90;;;;;;5004640;28;20194;-80
2023/09/19 01:47:56;;;;;;;2.33;1.80;;;16.80;99.90;;;;;;5020981;28;20666;-80
2023/09/19 01:50:41;;;;;;;3.47;2.13;;;16.80;99.90;;;;;;5021958;28;20253;-81
2023/09/19 01:53:15;;;;;;;2.07;1.73;;;16.80;99.90;;;;;;5038828;28;20213;-81
2023/09/19 01:55:46;;;;;;;1.90;1.80;;;16.90;99.90;;;;;;5038987;28;20190;-81
2023/09/19 01:58:34;;;;;;;2.87;2.00;;;16.80;99.90;;;;;;5021382;28;20667;-80
2023/09/19 02:01:01;;;;;;;3.70;2.13;;;16.70;99.90;;;;;;5039872;28;20658;-82
2023/09/19 02:03:28;;;;;;;2.27;1.90;;;16.70;99.90;;;;;;5022571;28;20202;-81
2023/09/19 02:05:54;;;;;;;3.03;1.90;;;16.70;99.90;;;;;;5021326;28;20262;-81
2023/09/19 02:08:23;;;;;;;2.57;1.97;;;16.70;99.90;;;;;;5022045;28;20277;-82
2023/09/19 02:10:49;;;;;;;3.03;1.80;;;16.70;99.90;;;;;;5039490;28;20174;-81
2023/09/19 02:13:19;;;;;;;4.10;1.90;;;16.70;99.90;;;;;;5039528;28;20178;-81
2023/09/19 02:15:45;;;;;;;2.07;1.83;;;16.70;99.90;;;;;;5021757;28;20657;-81
2023/09/19 02:18:14;;;;;;;2.07;1.70;;;16.70;99.90;;;;;;5022089;28;20681;-81
2023/09/19 02:20:40;;;;;;;3.20;1.80;;;16.80;99.90;;;;;;5039777;28;20205;-81
2023/09/19 02:23:07;;;;;;;2.70;1.90;;;16.80;99.90;;;;;;5043455;28;20174;-81
2023/09/19 02:25:33;;;;;;;2.47;1.80;;;16.80;99.90;;;;;;5024651;28;20201;-81
2023/09/19 02:28:01;;;;;;;3.40;1.90;;;16.80;99.90;;;;;;5023377;28;20197;-81
2023/09/19 02:30:26;;;;;;;3.03;1.97;;;16.70;99.90;;;;;;5023753;28;20171;-78
2023/09/19 02:32:52;;;;;;;3.97;2.00;;;16.70;99.90;;;;;;5026698;28;20182;-81
2023/09/19 02:35:20;;;;;;;2.47;2.10;;;16.70;99.90;;;;;;5026029;28;20201;-81
2023/09/19 02:37:47;;;;;;;2.60;2.00;;;16.70;99.90;;;;;;5044342;28;20170;-81
2023/09/19 02:40:22;;;;;;;2.70;2.00;;;16.70;99.90;;;;;;5044371;28;20178;-81
2023/09/19 02:42:54;;;;;;;2.10;1.90;;;16.70;99.90;;;;;;5024734;28;20209;-81
2023/09/19 02:45:20;;;;;;;2.40;1.90;;;16.70;99.90;;;;;;5043892;28;20190;-81
2023/09/19 02:47:47;;;;;;;2.67;1.83;;;16.70;99.90;;;;;;5025804;28;20236;-81
2023/09/19 02:50:15;;;;;;;2.07;1.73;;;16.70;99.90;;;;;;5024809;28;20174;-81
2023/09/19 02:52:47;;;;;;;3.33;1.97;;;16.70;99.90;;;;;;5042747;28;20181;-81
2023/09/19 02:55:17;;;;;;;3.17;1.80;;;16.70;99.90;;;;;;5024874;28;20194;-80
2023/09/19 02:57:55;;;;;;;3.27;1.80;;;16.60;99.90;;;;;;5023407;28;20179;-81
2023/09/19 03:00:22;;;;;;;2.27;1.50;;;16.60;99.90;;;;;;5024118;28;20174;-81
2023/09/19 03:02:53;;;;;;;2.17;1.70;;;16.60;99.90;;;;;;5040933;28;20245;-81
2023/09/19 03:05:20;;;;;;;2.20;1.50;;;16.60;99.90;;;;;;5041756;28;20224;-80
2023/09/19 03:07:50;;;;;;;1.80;1.50;;;16.50;99.90;;;;;;5040449;28;20217;-80
2023/09/19 03:10:20;;;;;;;2.77;1.57;;;16.60;99.90;;;;;;5043082;28;20187;-82
2023/09/19 03:12:46;;;;;;;2.07;1.70;;;16.50;99.90;;;;;;5023804;28;20171;-80
2023/09/19 03:15:12;;;;;;;4.23;1.60;;;16.40;99.90;;;;;;5026173;28;20203;-82
2023/09/19 03:17:37;;;;;;;2.70;1.47;;;16.30;99.90;;;;;;5044182;28;20247;-82
2023/09/19 03:20:08;;;;;;;1.70;1.40;;;16.40;99.90;;;;;;5025519;28;20182;-81
2023/09/19 03:22:34;;;;;;;2.13;1.63;;;16.30;99.90;;;;;;5023693;28;20187;-82
2023/09/19 03:25:00;;;;;;;2.67;1.40;;;16.30;99.90;;;;;;5005594;28;20210;-82
2023/09/19 03:27:26;;;;;;;1.37;1.20;;;16.30;99.90;;;;;;5022372;28;20696;-82
2023/09/19 03:29:53;;;;;;;1.20;1.10;;;16.40;99.90;;;;;;5022909;28;20179;-82
2023/09/19 03:32:19;;;;;;;2.60;1.40;;;16.40;99.90;;;;;;5019119;28;20202;-80
2023/09/19 03:34:45;;;;;;;3.30;1.33;;;16.40;99.90;;;;;;5044398;28;20174;-81
2023/09/19 03:37:10;;;;;;;3.30;1.60;;;16.30;99.90;;;;;;5047489;28;20179;-82
2023/09/19 03:39:36;;;;;;;2.07;1.40;;;16.30;99.90;;;;;;5047974;28;20598;-81
2023/09/19 03:42:03;;;;;;;3.13;1.63;;;16.30;99.90;;;;;;5048511;28;20201;-81
2023/09/19 03:44:29;;;;;;;1.70;1.40;;;16.20;99.90;;;;;;5030912;28;20198;-81
2023/09/19 03:46:56;;;;;;;2.40;1.50;;;16.20;99.90;;;;;;5031292;28;20202;-81
2023/09/19 03:49:22;;;;;;;2.23;1.50;;;16.10;99.90;;;;;;5049383;28;20170;-81
2023/09/19 03:51:47;;;;;;;2.47;1.40;;;16.10;99.90;;;;;;5027847;28;20185;-79
2023/09/19 03:54:13;;;;;;;2.33;1.53;;;16.10;99.90;;;;;;5042790;28;20584;-80
2023/09/19 03:56:38;;;;;;;3.87;1.50;;;16.00;99.90;;;;;;5043540;28;20232;-81
2023/09/19 03:59:04;;;;;;;2.57;1.50;;;16.00;99.90;;;;;;5024574;28;20174;-81
2023/09/19 04:01:31;;;;;;;1.47;1.37;;;15.90;99.90;;;;;;5042538;28;20204;-81
2023/09/19 04:03:57;;;;;;;2.30;1.50;;;15.90;99.90;;;;;;5042824;28;20185;-81
2023/09/19 04:06:23;;;;;;;3.13;1.50;;;15.80;99.90;;;;;;5024224;28;20198;-81
2023/09/19 04:08:48;;;;;;;3.83;1.50;;;15.80;99.90;;;;;;5024546;28;20186;-80
2023/09/19 04:11:14;;;;;;;2.70;1.50;;;15.70;99.90;;;;;;5042382;28;20174;-81
2023/09/19 04:13:40;;;;;;;2.40;1.47;;;15.70;99.90;;;;;;5042791;28;20249;-81
2023/09/19 04:16:06;;;;;;;2.97;1.50;;;15.70;99.90;;;;;;5024703;28;20210;-80
2023/09/19 04:18:37;;;;;;;2.07;1.57;;;15.60;99.90;;;;;;5024717;28;20180;-80
2023/09/19 04:21:03;;;;;;;2.80;1.73;;;15.60;99.90;;;;;;5042220;28;20185;-81
2023/09/19 04:23:29;;;;;;;2.80;1.57;;;15.50;99.90;;;;;;5041659;28;20181;-81
2023/09/19 04:25:54;;;;;;;2.47;1.70;;;15.40;99.90;;;;;;5023753;28;20198;-81
2023/09/19 04:28:20;;;;;;;2.63;1.60;;;15.40;99.90;;;;;;5024220;28;20182;-82
2023/09/19 04:30:45;;;;;;;4.53;1.93;;;15.30;99.90;;;;;;5022951;28;20220;-80
2023/09/19 04:33:14;;;;;;;2.13;1.80;;;15.30;99.90;;;;;;5023843;28;20175;-81
2023/09/19 04:35:42;;;;;;;2.87;1.80;;;15.30;99.90;;;;;;5042100;28;20186;-81
2023/09/19 04:38:08;;;;;;;3.07;1.83;;;15.30;99.90;;;;;;5023520;28;20646;-80
2023/09/19 04:40:33;;;;;;;2.27;1.90;;;15.30;99.90;;;;;;5023725;28;20178;-81
2023/09/19 04:43:00;;;;;;;2.93;2.00;;;15.30;99.90;;;;;;5023631;28;20185;-81
2023/09/19 04:45:29;;;;;;;3.57;1.90;;;15.30;99.90;;;;;;5041345;28;20228;-81
2023/09/19 04:47:56;;;;;;;3.03;1.90;;;15.30;99.90;;;;;;5041783;28;20213;-81
2023/09/19 04:50:22;;;;;;;2.57;2.10;;;15.30;99.90;;;;;;5023385;28;20178;-81
2023/09/19 04:52:51;;;;;;;2.80;1.87;;;15.30;99.90;;;;;;5023254;28;20253;-81
2023/09/19 04:55:18;;;;;;;2.13;1.80;;;15.40;99.90;;;;;;5023790;28;20195;-80
2023/09/19 04:57:48;;;;;;;1.70;1.60;;;15.40;99.90;;;;;;5041787;28;20366;-81
2023/09/19 05:00:16;;;;;;;2.53;1.90;;;15.40;99.90;;;;;;5042167;28;20189;-82
2023/09/19 05:02:43;;;;;;;3.00;1.87;;;15.40;99.90;;;;;;5040803;28;20224;-81
2023/09/19 05:05:16;;;;;;;2.27;1.70;;;15.40;99.90;;;;;;5040044;28;20248;-81
2023/09/19 05:07:43;;;;;;;2.53;1.70;;;15.40;99.90;;;;;;5045006;28;20214;-81
2023/09/19 05:10:10;;;;;;;2.00;1.70;;;15.40;99.90;;;;;;5044512;28;20178;-82
2023/09/19 05:12:35;;;;;;;3.13;1.90;;;15.40;99.90;;;;;;5021400;28;20201;-82
2023/09/19 05:15:03;;;;;;;2.23;1.57;;;15.40;99.90;;;;;;5022137;28;20568;-82
2023/09/19 05:17:28;;;;;;;2.20;1.40;;;15.40;99.90;;;;;;5022246;28;20178;-82
2023/09/19 05:19:54;;;;;;;3.53;2.07;;;15.50;99.90;;;;;;5038918;28;20191;-81
2023/09/19 05:22:20;;;;;;;3.33;1.70;;;15.50;99.90;;;;;;5017925;28;20268;-81
2023/09/19 05:24:48;;;;;;;3.10;1.67;;;15.50;99.90;;;;;;5034772;28;20175;-82
2023/09/19 05:27:16;;;;;;;3.03;2.00;;;15.50;99.90;;;;;;5035035;28;20237;-81
2023/09/19 05:29:45;;;;;;;7.07;4.23;;;15.50;99.90;;;;;;5034469;28;20185;-80
2023/09/19 05:32:11;;;;;;;4.83;2.80;;;15.50;99.90;;;;;;5016624;28;20174;-78
2023/09/19 05:34:38;;;;;;;2.00;1.80;;;15.40;99.90;;;;;;5016498;28;20177;-83
2023/09/19 05:37:07;;;;;;;4.67;2.00;;;15.40;99.90;;;;;;5017598;28;20178;-82
2023/09/19 05:39:33;;;;;;;2.23;1.73;;;15.40;99.90;;;;;;5017837;28;20178;-80
2023/09/19 05:42:00;;;;;;;2.00;1.70;;;15.40;99.90;;;;;;5017948;28;20205;-81
2023/09/19 05:44:25;;;;;;;2.17;1.80;;;15.50;99.90;;;;;;5035360;28;20208;-82
2023/09/19 05:46:51;;;;;;;1.97;1.70;;;15.40;99.90;;;;;;5016897;28;20663;-84
2023/09/19 05:49:17;;;;;;;3.40;1.87;;;15.50;99.90;;;;;;5018327;28;20253;-82
2023/09/19 05:51:43;;;;;;;3.03;1.70;;;15.50;99.90;;;;;;5037081;28;20194;-82
2023/09/19 05:54:09;;;;;;;1.70;1.50;;;15.50;99.90;;;;;;5034630;28;20170;-81
2023/09/19 05:56:34;;;;;;;2.70;1.53;;;15.50;99.90;;;;;;5036312;28;20346;-82
2023/09/19 05:59:00;;;;;;;3.37;1.80;;;15.60;99.90;;;;;;5017703;28;20187;-82
2023/09/19 06:01:26;;;;;;;3.03;1.90;;;15.60;99.90;;;;;;5018686;28;20180;-82
2023/09/19 06:03:52;;;;;;;2.73;1.73;;;15.60;99.90;;;;;;5018613;28;20183;-81
2023/09/19 06:06:18;;;;;;;2.50;1.43;;;15.70;99.90;;;;;;5034173;28;20202;-80
2023/09/19 06:08:44;;;;;;;2.10;1.73;;;16.00;99.90;;;;;;5015906;28;20178;-79
2023/09/19 06:11:10;;;;;;;2.57;1.43;;;16.30;99.90;;;;;;5033150;28;20179;-79
2023/09/19 06:13:39;;;;;;;3.13;1.47;;;16.40;99.90;;;;;;5015909;28;20203;-78
2023/09/19 06:16:05;;;;;;;3.30;1.60;;;16.40;99.90;;;;;;5015713;28;20591;-79
2023/09/19 06:18:33;;;;;;;2.07;1.30;;;16.30;99.90;;;;;;5034248;28;20174;-79
2023/09/19 06:21:12;;;;;;;1.87;1.40;;;16.50;99.90;;;;;;5110641;27;20684;-80
2023/09/19 06:23:38;;;;;;;3.47;1.50;;;16.40;99.90;;;;;;5127056;28;20188;-79
2023/09/19 06:26:06;;;;;;;2.90;1.60;;;16.40;99.90;;;;;;5111419;28;20228;-80
2023/09/19 06:28:33;;;;;;;3.43;1.40;;;16.60;99.90;;;;;;5110181;28;20179;-79
2023/09/19 06:30:59;;;;;;;1.60;1.20;;;16.40;99.90;;;;;;5109765;28;20202;-79
2023/09/19 06:33:25;;;;;;;3.30;1.30;;;16.30;99.90;;;;;;5111001;28;20202;-79
2023/09/19 06:35:53;;;;;;;3.20;1.60;;;16.40;99.90;;;;;;5110099;28;20188;-79
2023/09/19 06:38:19;;;;;;;2.73;1.30;;;16.50;99.90;;;;;;5111855;27;20164;-79
2023/09/19 06:40:44;;;;;;;3.30;1.40;;;16.70;99.90;;;;;;5111307;28;20206;-80
2023/09/19 06:43:11;;;;;;;2.13;1.37;;;16.60;99.90;;;;;;5111635;28;20168;-80
2023/09/19 06:45:36;;;;;;;1.57;1.33;;;16.60;99.90;;;;;;5111412;27;20184;-80
2023/09/19 06:48:03;;;;;;;3.73;1.40;;;16.50;99.90;;;;;;5112302;28;20168;-81
2023/09/19 06:50:30;;;;;;;3.30;1.20;;;16.50;99.90;;;;;;5113199;28;20175;-82
2023/09/19 06:52:59;;;;;;;2.50;1.30;;;16.40;99.90;;;;;;5113242;28;20233;-84
2023/09/19 06:55:27;;;;;;;2.53;1.50;;;16.40;99.90;;;;;;5114688;28;20238;-82
2023/09/19 06:57:54;;;;;;;3.90;1.57;;;16.30;99.90;;;;;;5112867;28;20176;-80
2023/09/19 07:00:23;;;;;;;2.87;1.60;;;16.20;99.90;;;;;;5115258;28;20195;-82
2023/09/19 07:03:00;;;;;;;4.47;1.90;;;16.30;99.90;;;;;;5113814;28;20168;-80
2023/09/19 07:05:27;;;;;;;2.40;1.40;;;16.30;99.90;;;;;;5114412;28;20187;-82
2023/09/19 07:07:55;;;;;;;2.17;1.30;;;16.30;99.90;;;;;;5113806;28;20163;-80
2023/09/19 07:10:23;;;;;;;3.27;1.60;;;16.30;99.90;;;;;;5116082;28;20172;-81
2023/09/19 07:13:11;;;;;;;4.27;2.03;;;16.40;99.90;;;;;;5113777;28;20635;-82
2023/09/19 07:15:46;;;;;;;2.27;1.47;;;16.40;99.90;;;;;;5110427;27;20198;-82
2023/09/19 07:18:16;;;;;;;2.70;1.40;;;16.40;99.90;;;;;;5110487;28;20163;-81
2023/09/19 07:20:48;;;;;;;3.20;1.70;;;16.30;99.90;;;;;;5109642;27;20200;-82
2023/09/19 07:23:15;;;;;;;2.13;1.50;;;16.30;99.90;;;;;;5110351;28;20183;-81
2023/09/19 07:25:40;;;;;;;3.03;1.40;;;16.40;99.90;;;;;;5109994;28;20192;-79
2023/09/19 07:28:06;;;;;;;2.90;1.83;;;16.40;99.90;;;;;;5110304;28;20254;-81
2023/09/19 07:30:32;;;;;;;3.00;1.30;;;16.50;99.90;;;;;;5108428;28;20176;-81
2023/09/19 07:32:57;;;;;;;1.80;1.47;;;16.50;99.90;;;;;;5095083;28;20239;-81
2023/09/19 07:35:23;;;;;;;1.83;1.30;;;16.50;99.90;;;;;;5095362;28;20196;-81
2023/09/19 07:37:49;;;;;;;2.17;1.40;;;16.40;99.90;;;;;;5095414;28;20664;-81
2023/09/19 07:40:19;;;;;;;3.73;1.30;;;16.50;99.90;;;;;;5095293;28;20264;-81
2023/09/19 07:42:46;;;;;;;3.67;1.57;;;16.50;17.40;;;;;;5094670;28;20569;-81
2023/09/19 07:45:16;;;;;;;2.33;1.30;;;16.50;53.10;;;;;;5094635;28;20192;-81
2023/09/19 07:47:49;;;;;;;2.57;1.47;;;16.50;99.90;;;;;;5096231;28;20218;-81
2023/09/19 07:50:18;;;;;;;3.23;1.40;;;16.60;19.60;;;;;;5094905;28;20263;-81
2023/09/19 07:52:44;;;;;;;3.10;1.50;;;16.50;30.00;;;;;;5095966;28;20233;-81
2023/09/19 07:55:17;;;;;;;3.23;1.80;;;16.60;60.30;;;;;;5096008;28;20188;-81
2023/09/19 07:57:46;;;;;;;1.50;1.40;;;16.80;30.60;;;;;;5095055;28;20177;-81
2023/09/19 08:00:12;;;;;;;2.33;1.37;;;16.80;80.70;;;;;;5094610;28;20203;-81
2023/09/19 08:02:39;;;;;;;4.87;1.73;;;16.80;1.00;;;;;;5096086;28;20191;-82
2023/09/19 08:05:06;;;;;;;2.73;1.53;;;16.90;1.00;;;;;;5095061;28;20208;-81
2023/09/19 08:07:36;;;;;;;1.70;1.40;;;16.90;1.00;;;;;;5094422;28;20648;-83
2023/09/19 08:10:02;;;;;;;2.40;1.43;;;17.00;1.00;;;;;;5095013;28;20177;-81
2023/09/19 08:12:28;;;;;;;1.73;1.33;;;17.00;1.00;;;;;;5096392;28;20172;-82
2023/09/19 08:14:55;;;;;;;2.80;1.50;;;16.90;1.00;;;;;;5094958;28;20190;-81
2023/09/19 08:17:22;;;;;;;1.50;1.40;;;16.90;99.90;;;;;;5095929;28;20180;-81
2023/09/19 08:19:49;;;;;;;2.37;1.30;;;16.80;1.00;;;;;;5094798;28;20261;-80
2023/09/19 08:22:17;;;;;;;2.20;1.30;;;16.80;99.90;;;;;;5096394;28;20191;-81
2023/09/19 08:24:43;;;;;;;3.30;1.53;;;16.90;1.00;;;;;;5096126;28;20176;-82
2023/09/19 08:27:10;;;;;;;2.30;1.50;;;16.90;1.00;;;;;;5097000;28;20161;-82
2023/09/19 08:29:35;;;;;;;3.53;1.50;;;16.90;1.00;;;;;;5096512;28;20181;-81
2023/09/19 08:32:01;;;;;;;2.60;1.37;;;16.90;1.00;;;;;;5095959;28;20176;-82
2023/09/19 08:34:27;;;;;;;2.43;1.30;;;16.90;84.90;;;;;;5096457;28;20632;-81
2023/09/19 08:36:58;;;;;;;3.87;1.80;;;16.90;99.90;;;;;;5094836;28;20211;-81
2023/09/19 08:39:25;;;;;;;2.40;1.40;;;16.90;1.00;;;;;;5094899;28;20656;-81
2023/09/19 08:41:58;;;;;;;4.40;1.53;;;16.90;1.00;;;;;;5094419;28;20172;-81
2023/09/19 08:44:24;;;;;;;3.83;1.57;;;17.00;1.00;;;;;;5093307;28;20169;-80
2023/09/19 08:46:55;;;;;;;2.43;1.30;;;17.10;99.90;;;;;;5095627;28;20697;-81
2023/09/19 08:49:33;;;;;;;3.17;1.50;;;17.20;99.90;;;;;;5095613;28;20176;-81
2023/09/19 08:52:20;;;;;;;1.73;1.43;;;17.20;99.90;;;;;;5094180;28;20172;-81
2023/09/19 08:54:48;;;;;;;3.63;1.50;;;17.30;99.90;;;;;;5095180;28;20176;-80
2023/09/19 08:57:21;;;;;;;4.17;1.67;;;17.30;1.00;;;;;;5095804;28;20172;-81
2023/09/19 08:59:49;;;;;;;2.20;1.30;;;17.30;1.00;;;;;;5094780;28;20188;-81
2023/09/19 09:02:16;;;;;;;2.43;1.33;;;17.30;1.00;;;;;;5091380;28;20176;-80
2023/09/19 09:04:44;;;;;;;4.43;1.40;;;17.50;1.00;;;;;;5094175;28;20177;-82
2023/09/19 09:07:13;;;;;;;3.93;1.63;;;17.50;1.00;;;;;;5093381;28;20183;-81
2023/09/19 09:09:42;;;;;;;3.00;1.40;;;17.60;99.90;;;;;;5094071;28;20200;-81
2023/09/19 09:12:13;;;;;;;1.93;1.53;;;17.70;99.90;;;;;;5094234;28;20192;-83
2023/09/19 09:14:47;;;;;;;4.23;1.57;;;17.80;99.90;;;;;;5094547;28;20203;-81
2023/09/19 09:17:13;;;;;;;4.50;1.57;;;17.70;1.00;;;;;;5097065;28;20183;-82
2023/09/19 09:19:38;;;;;;;4.07;1.67;;;17.60;1.00;;;;;;5109310;28;20207;-80
2023/09/19 09:22:08;;;;;;;2.20;1.50;;;17.70;99.90;;;;;;5085268;28;20275;-78
2023/09/19 09:24:36;;;;;;;3.73;1.70;;;17.70;1.00;;;;;;5092612;28;20228;-81
2023/09/19 09:27:05;;;;;;;2.30;1.47;;;17.90;99.90;;;;;;5093575;28;20571;-80
2023/09/19 09:29:43;;;;;;;3.23;1.90;;;17.90;41.70;;;;;;5088057;28;20272;-79
2023/09/19 09:32:28;;;;;;;3.03;1.60;;;18.00;1.00;;;;;;5092348;28;20574;-79
2023/09/19 09:34:59;;;;;;;2.83;1.60;;;18.10;1.00;;;;;;5090961;28;20183;-81
2023/09/19 09:37:26;;;;;;;4.83;2.00;;;18.10;56.60;;;;;;5092537;28;20180;-80
2023/09/19 09:40:18;;;;;;;2.43;1.53;;;18.20;1.00;;;;;;5092754;28;20267;-80
2023/09/19 09:42:49;;;;;;;4.77;1.67;;;18.20;1.00;;;;;;5091602;28;20199;-80
2023/09/19 09:45:56;;;;;;;2.80;1.53;;;18.30;99.90;;;;;;5090881;28;20227;-80
2023/09/19 09:48:14;;;;;;;2.83;1.60;;;18.30;99.90;;;;;;5093413;28;20304;-80
2023/09/19 09:50:56;;;;;;;3.47;1.67;;;18.00;1.00;;;;;;5096986;28;20290;-80
2023/09/19 09:53:27;;;;;;;2.97;1.67;;;18.10;1.00;;;;;;5094326;28;20180;-81
2023/09/19 09:56:09;;;;;;;3.27;1.70;;;18.20;1.00;;;;;;5105157;28;20209;-82
2023/09/19 09:58:36;;;;;;;2.80;1.87;;;18.20;99.90;;;;;;5100606;28;20172;-83
2023/09/19 10:01:08;;;;;;;3.77;1.77;;;18.10;99.90;;;;;;5108042;28;20295;-84
2023/09/19 10:03:48;;;;;;;3.10;1.83;;;18.00;99.90;;;;;;5103899;28;20187;-84
2023/09/19 10:09:13;;;;;;;4.17;1.70;;;18.20;13.40;;;;;;5107154;28;20172;-82
2023/09/19 10:11:43;;;;;;;4.77;1.87;;;18.50;99.90;;;;;;5107333;28;20198;-81
2023/09/19 10:14:15;;;;;;;3.43;1.60;;;18.40;1.00;;;;;;5108352;28;20181;-84
2023/09/19 10:16:46;;;;;;;3.80;1.30;;;18.50;1.00;;;;;;5098668;28;20271;-80
2023/09/19 10:19:24;;;;;;;3.03;1.60;;;18.70;1.00;;;;;;5090488;28;20200;-80
2023/09/19 10:21:51;;;;;;;3.23;1.60;;;18.80;99.90;;;;;;5093465;28;20179;-80
2023/09/19 10:24:18;;;;;;;2.80;1.67;;;18.90;99.90;;;;;;5094005;28;20184;-80
2023/09/19 10:26:46;;;;;;;2.50;1.70;;;19.00;99.90;;;;;;5093751;28;20188;-80
2023/09/19 10:29:14;;;;;;;2.83;1.60;;;18.80;1.00;;;;;;5095466;28;20263;-80
2023/09/19 10:31:47;;;;;;;3.27;1.80;;;18.90;12.80;;;;;;5095998;28;20165;-80
2023/09/19 10:34:16;;;;;;;3.00;1.60;;;19.00;1.00;;;;;;5093304;28;20191;-80
2023/09/19 10:36:46;;;;;;;3.63;1.63;;;19.10;97.30;;;;;;5091343;28;20217;-80
2023/09/19 10:39:18;;;;;;;3.83;1.85;;;19.20;99.90;;;;;;5091807;28;20185;-82
2023/09/19 10:41:53;;;;;;;3.03;1.67;;;19.30;99.90;;;;;;5092252;28;20207;-81
2023/09/19 10:44:25;;;;;;;2.42;1.70;;;19.20;1.00;;;;;;5094056;28;20252;-79
2023/09/19 10:46:55;;;;;;;3.13;1.83;;;19.10;1.00;;;;;;5093813;28;20212;-79
2023/09/19 10:49:21;;;;;;;3.35;1.90;;;19.00;1.00;;;;;;5093364;28;20172;-79
2023/09/19 10:51:50;;;;;;;2.67;1.60;;;18.80;29.40;;;;;;5092190;28;20267;-79
2023/09/19 10:54:21;;;;;;;2.77;1.70;;;18.70;99.90;;;;;;5093753;28;20263;-80
2023/09/19 10:56:50;;;;;;;3.17;1.60;;;18.80;99.90;;;;;;5092157;28;20197;-81
2023/09/19 10:59:18;;;;;;;3.40;2.00;;;19.00;99.90;;;;;;5091679;28;20200;-79
2023/09/19 11:01:53;;;;;;;5.40;1.90;;;19.10;99.90;;;;;;5093069;28;20244;-80
2023/09/19 11:04:38;;;;;;;2.10;1.80;;;19.20;1.00;;;;;;5093579;28;20176;-82
2023/09/19 11:07:12;;;;;;;3.00;1.70;;;19.20;99.90;;;;;;5095574;28;20188;-80
2023/09/19 11:09:53;;;;;;;2.87;1.67;;;19.30;2.00;;;;;;5097054;28;20168;-80
2023/09/19 11:12:31;;;;;;;3.50;1.67;;;19.10;1.00;;;;;;5094774;28;20720;-83
2023/09/19 11:14:58;;;;;;;4.50;1.87;;;18.90;99.90;;;;;;5104924;28;20175;-80
2023/09/19 11:17:34;;;;;;;2.78;1.90;;;18.90;99.90;;;;;;5101962;28;20200;-80
2023/09/19 11:22:53;;;;;;;3.33;1.60;;;19.00;99.90;;;;;;5097372;28;20236;-80
2023/09/19 11:25:31;;;;;;;3.57;1.73;;;19.20;99.90;;;;;;5096347;28;20188;-80
2023/09/19 11:28:05;;;;;;;3.78;1.80;;;19.30;1.00;;;;;;5096808;28;20168;-80
2023/09/19 11:30:32;;;;;;;2.73;1.57;;;19.20;1.00;;;;;;5096879;28;20262;-80
2023/09/19 11:36:14;;;;;;;4.53;1.73;;;19.10;44.50;;;;;;5096490;28;20203;-80
2023/09/19 11:38:49;;;;;;;2.67;1.67;;;19.40;1.00;;;;;;5096690;28;20184;-81
2023/09/19 11:41:25;;;;;;;2.85;1.48;;;19.40;1.00;;;;;;5097417;28;20245;-81
2023/09/19 11:44:12;;;;;;;4.43;1.63;;;19.50;1.00;;;;;;5097943;28;20164;-80
2023/09/19 11:46:56;;;;;;;2.80;1.70;;;19.80;99.90;;;;;;5085582;28;20207;-82
2023/09/19 11:49:32;;;;;;;2.28;1.50;;;19.90;99.90;;;;;;5097989;28;20172;-81
2023/09/19 11:52:00;;;;;;;3.72;1.83;;;19.60;99.90;;;;;;5097542;28;20171;-82
2023/09/19 11:54:31;;;;;;;3.40;1.60;;;19.60;99.90;;;;;;5096290;28;20184;-82
2023/09/19 11:56:58;;;;;;;2.42;1.50;;;20.00;99.90;;;;;;5098504;28;20281;-80
2023/09/19 11:59:28;;;;;;;2.88;1.60;;;20.00;91.00;;;;;;5097387;28;20200;-81
2023/09/19 12:01:58;;;;;;;4.05;1.40;;;19.70;99.90;;;;;;5096245;28;20173;-82
2023/09/19 12:04:37;;;;;;;3.53;1.60;;;19.40;99.90;;;;;;5097815;28;20196;-84
2023/09/19 12:07:23;;;;;;;3.47;1.70;;;19.20;99.90;;;;;;5096703;28;20263;-81
2023/09/19 12:10:02;;;;;;;3.58;1.70;;;19.20;99.90;;;;;;5096638;28;20274;-81
2023/09/19 12:12:27;;;;;;;3.30;1.55;;;19.10;1.00;;;;;;5091147;28;20538;-81
2023/09/19 12:14:54;;;;;;;3.55;2.00;;;19.20;1.00;;;;;;5095503;28;20172;-81
2023/09/19 12:17:22;;;;;;;4.07;2.03;;;19.30;1.00;;;;;;5097334;28;20172;-80
2023/09/19 12:19:55;;;;;;;2.95;1.65;;;19.40;99.90;;;;;;5096800;28;20216;-81
2023/09/19 12:22:21;;;;;;;4.40;1.90;;;19.70;99.90;;;;;;5095268;28;20172;-81
2023/09/19 12:24:47;;;;;;;4.75;1.83;;;20.10;99.90;;;;;;5096343;28;20206;-85
2023/09/19 12:27:13;;;;;;;4.15;1.95;;;20.10;12.80;;;;;;5095079;28;20187;-81
2023/09/19 12:29:50;;;;;;;6.85;1.77;;;20.00;96.50;;;;;;5096536;28;20251;-81
2023/09/19 12:32:19;;;;;;;3.83;1.73;;;19.70;24.40;;;;;;5095344;28;20180;-81
2023/09/19 12:34:52;;;;;;;3.10;1.80;;;19.40;99.90;;;;;;5064210;22;20307;-82
2023/09/19 12:37:21;;;;;;;3.00;1.90;;;19.40;99.90;;;;;;5033937;28;20183;-83
2023/09/19 12:39:53;;;;;;;5.60;2.30;;;19.70;99.90;;;;;;5033616;28;20210;-83
2023/09/19 12:42:23;;;;;;;4.72;1.80;;;20.20;57.20;;;;;;5033583;28;20181;-83
2023/09/19 12:44:55;;;;;;;3.33;2.00;;;20.20;1.00;;;;;;5033493;28;20277;-83
2023/09/19 12:47:23;;;;;;;3.50;1.90;;;20.60;1.00;;;;;;5033213;28;20174;-83
2023/09/19 12:50:18;;;;;;;4.70;2.00;;;20.90;1.00;;;;;;5033782;28;20182;-83
2023/09/19 12:52:48;;;;;;;2.55;1.88;;;20.80;1.00;;;;;;5033248;28;20257;-83
2023/09/19 12:55:27;;;;;;;3.90;2.00;;;20.80;1.00;;;;;;5033072;28;20179;-84
2023/09/19 12:57:56;;;;;;;3.30;1.60;;;21.00;1.00;;;;;;5033311;28;20214;-83
2023/09/19 13:00:24;;;;;;;3.17;1.88;;;21.10;1.00;;;;;;5032108;28;20301;-83
2023/09/19 13:03:24;;;;;;;4.05;2.20;;;21.30;1.00;;;;;;5032943;28;20179;-84
2023/09/19 13:05:55;;;;;;;3.80;1.88;;;21.20;1.00;;;;;;5033304;28;20236;-83
2023/09/19 13:08:30;;;;;;;4.10;1.90;;;21.20;1.00;;;;;;5032805;28;20208;-83